Time,TemperatureF,DewpointF,PressureIn,WindDirection,WindDirectionDegrees,WindSpeedMPH,WindSpeedGustMPH,Humidity,HourlyPrecipIn,Conditions,Clouds,dailyrainin,SoftwareType,DateUTC
2013-12-10 10:40:00,28.4,25.6,30.05,NNE,22,0.0,0.0,89,0.00,CLR,,0.00,WeatherDisplay:10.37,2013-12-10 15:40:00,
2013-12-10 10:41:00,28.4,25.6,30.05,NNE,22,0.0,0.0,89,0.00,CLR,,0.00,WeatherDisplay:10.37,2013-12-10 15:41:00,
2013-12-10 10:46:00,28.2,25.4,30.06,NNE,22,0.0,0.0,89,0.00,CLR,,0.00,WeatherDisplay:10.37,2013-12-10 15:46:00,
2013-12-10 10:51:00,28.0,25.2,30.06,NNE,22,0.0,0.0,89,0.00,CLR,,0.00,WeatherDisplay:10.37,2013-12-10 15:51:00,
2013-12-10 10:56:00,28.0,25.2,30.06,NNE,22,0.0,0.0,89,0.00,CLR,,0.00,WeatherDisplay:10.37,2013-12-10 15:56:00,
2013-12-10 11:01:00,27.7,24.9,30.06,NNE,22,0.0,0.0,89,0.00,CLR,,0.00,WeatherDisplay:10.37,2013-12-10 16:01:00,
2013-12-10 11:06:00,27.7,24.9,30.07,NNE,22,0.0,0.0,89,0.00,CLR,,0.00,WeatherDisplay:10.37,2013-12-10 16:06:00,
2013-12-10 11:11:00,27.7,24.9,30.07,NNE,22,0.0,0.0,89,0.00,CLR,,0.00,WeatherDisplay:10.37,2013-12-10 16:11:00,
2013-12-10 11:16:00,27.7,24.9,30.08,NNE,22,0.0,0.0,89,0.00,CLR,,0.00,WeatherDisplay:10.37,2013-12-10 16:16:00,
2013-12-10 11:21:00,27.7,24.9,30.08,NNE,22,0.0,0.0,89,0.00,CLR,,0.00,WeatherDisplay:10.37,2013-12-10 16:21:00,
2013-12-10 11:26:00,27.5,24.7,30.08,NNE,22,0.0,0.0,89,0.00,CLR,,0.00,WeatherDisplay:10.37,2013-12-10 16:26:00,
2013-12-10 11:31:00,27.1,24.3,30.08,NNE,22,0.0,0.0,89,0.00,CLR,,0.00,WeatherDisplay:10.37,2013-12-10 16:31:00,
2013-12-10 11:36:00,27.1,24.3,30.08,NNE,22,0.0,0.0,89,0.00,CLR,,0.00,WeatherDisplay:10.37,2013-12-10 16:36:00,
2013-12-10 11:41:00,27.1,24.3,30.08,NNE,22,0.0,0.0,89,0.00,CLR,,0.00,WeatherDisplay:10.37,2013-12-10 16:41:00,
2013-12-10 11:46:00,27.3,24.5,30.08,NNE,22,0.0,0.0,89,0.00,CLR,,0.00,WeatherDisplay:10.37,2013-12-10 16:46:00,
2013-12-10 11:51:00,27.3,24.2,30.08,NNE,22,0.0,0.0,88,0.00,CLR,,0.00,WeatherDisplay:10.37,2013-12-10 16:51:00,
2013-12-10 11:56:00,27.3,24.2,30.08,NNE,22,0.0,0.0,88,0.00,CLR,,0.00,WeatherDisplay:10.37,2013-12-10 16:56:00,
2013-12-10 12:01:00,27.3,24.2,30.08,NNE,22,0.0,0.0,88,0.00,CLR,,0.00,WeatherDisplay:10.37,2013-12-10 17:01:00,
2013-12-10 12:06:00,27.7,24.3,30.08,NNE,22,0.0,0.0,87,0.00,CLR,,0.00,WeatherDisplay:10.37,2013-12-10 17:06:00,
2013-12-10 12:11:00,28.6,25.2,30.08,NNE,22,0.0,0.0,87,0.00,CLR,,0.00,WeatherDisplay:10.37,2013-12-10 17:11:00,
2013-12-10 12:16:00,30.0,26.1,30.08,NNE,22,0.0,0.0,85,0.00,CLR,,0.00,WeatherDisplay:10.37,2013-12-10 17:16:00,
2013-12-10 12:21:00,30.7,26.2,30.08,NNE,22,0.0,0.0,83,0.00,CLR,,0.00,WeatherDisplay:10.37,2013-12-10 17:21:00,
2013-12-10 12:26:00,31.8,27.5,30.08,NNE,22,0.0,0.0,84,0.00,CLR,,0.00,WeatherDisplay:10.37,2013-12-10 17:26:00,
2013-12-10 12:31:00,36.3,30.1,30.06,NNE,22,0.0,0.0,78,0.00,CLR,,0.00,WeatherDisplay:10.37,2013-12-10 17:31:00,
2013-12-10 12:36:00,38.5,31.2,30.06,NNE,22,0.0,0.0,75,0.00,CLR,,0.00,WeatherDisplay:10.37,2013-12-10 17:36:00,
2013-12-10 12:41:00,39.4,29.7,30.06,NNE,22,0.0,0.0,68,0.00,CLR,,0.00,WeatherDisplay:10.37,2013-12-10 17:41:00,
2013-12-10 12:46:00,39.9,30.2,30.07,NNE,22,0.0,0.0,68,0.00,CLR,,0.00,WeatherDisplay:10.37,2013-12-10 17:46:00,
2013-12-10 12:51:00,39.6,30.2,30.07,NNE,22,0.0,0.0,69,0.00,CLR,,0.00,WeatherDisplay:10.37,2013-12-10 17:51:00,
2013-12-10 12:56:00,38.8,29.2,30.07,NNE,22,0.0,0.0,68,0.00,CLR,,0.00,WeatherDisplay:10.37,2013-12-10 17:56:00,
2013-12-10 13:01:00,37.4,27.8,30.08,NNE,22,0.0,0.0,68,0.00,CLR,,0.00,WeatherDisplay:10.37,2013-12-10 18:01:00,
2013-12-10 13:06:00,36.0,26.4,30.08,NNE,22,0.0,0.0,68,0.00,CLR,,0.00,WeatherDisplay:10.37,2013-12-10 18:06:00,
2013-12-10 13:11:00,34.2,25.7,30.08,NNE,22,0.0,0.0,71,0.00,CLR,,0.00,WeatherDisplay:10.37,2013-12-10 18:11:00,
2013-12-10 13:16:00,31.8,24.1,30.08,NNE,22,0.0,0.0,73,0.00,CLR,,0.00,WeatherDisplay:10.37,2013-12-10 18:16:00,
2013-12-10 13:22:00,31.6,24.3,30.08,NNE,22,0.0,0.0,74,0.00,CLR,,0.00,WeatherDisplay:10.37,2013-12-10 18:22:00,
2013-12-10 13:27:00,30.9,23.9,30.08,NNE,22,0.0,0.0,75,0.00,CLR,,0.00,WeatherDisplay:10.37,2013-12-10 18:27:00,
2013-12-10 13:32:00,30.7,23.8,30.08,NNE,22,0.0,0.0,75,0.00,CLR,,0.00,WeatherDisplay:10.37,2013-12-10 18:32:00,
2013-12-10 13:37:00,30.6,23.6,30.07,NNE,22,0.0,0.0,75,0.00,CLR,,0.00,WeatherDisplay:10.37,2013-12-10 18:37:00,
2013-12-10 13:42:00,29.7,23.3,30.08,NNE,22,0.0,0.0,77,0.00,CLR,,0.00,WeatherDisplay:10.37,2013-12-10 18:42:00,
2013-12-10 13:47:00,29.1,22.8,30.08,NNE,22,0.0,0.0,77,0.00,CLR,,0.00,WeatherDisplay:10.37,2013-12-10 18:47:00,
2013-12-10 13:52:00,28.9,22.9,30.08,NNE,22,0.0,0.0,78,0.00,CLR,,0.00,WeatherDisplay:10.37,2013-12-10 18:52:00,
2013-12-10 13:57:00,28.6,22.9,30.08,NNE,22,0.0,0.0,79,0.00,CLR,,0.00,WeatherDisplay:10.37,2013-12-10 18:57:00,
2013-12-10 14:02:00,28.2,22.5,30.08,NNE,22,0.0,0.0,79,0.00,CLR,,0.00,WeatherDisplay:10.37,2013-12-10 19:02:00,
2013-12-10 14:07:00,28.6,23.2,30.08,NNE,22,0.0,0.0,80,0.00,CLR,,0.00,WeatherDisplay:10.37,2013-12-10 19:07:00,
2013-12-10 14:12:00,30.4,24.9,30.08,NNE,22,0.0,0.0,80,0.00,CLR,,0.00,WeatherDisplay:10.37,2013-12-10 19:12:00,
2013-12-10 14:17:00,32.0,26.5,30.08,NNE,22,0.0,0.0,80,0.00,CLR,,0.00,WeatherDisplay:10.37,2013-12-10 19:17:00,
2013-12-10 14:22:00,32.9,26.5,30.08,NNE,22,0.0,0.0,77,0.00,CLR,,0.00,WeatherDisplay:10.37,2013-12-10 19:22:00,
2013-12-10 14:27:00,31.8,25.1,30.08,NNE,22,0.0,0.0,76,0.00,CLR,,0.00,WeatherDisplay:10.37,2013-12-10 19:27:00,
2013-12-10 14:32:00,30.7,24.1,30.09,NNE,22,0.0,0.0,76,0.00,CLR,,0.00,WeatherDisplay:10.37,2013-12-10 19:32:00,
2013-12-10 14:37:00,30.0,23.7,30.09,NNE,22,0.0,0.0,77,0.00,CLR,,0.00,WeatherDisplay:10.37,2013-12-10 19:37:00,
2013-12-10 14:42:00,29.5,23.2,30.09,NNE,22,0.0,0.0,77,0.00,CLR,,0.00,WeatherDisplay:10.37,2013-12-10 19:42:00,
2013-12-10 14:47:00,29.1,23.1,30.10,NNE,22,0.0,0.0,78,0.00,CLR,,0.00,WeatherDisplay:10.37,2013-12-10 19:47:00,
2013-12-10 14:52:00,28.2,22.2,30.10,NNE,22,0.0,0.0,78,0.00,CLR,,0.00,WeatherDisplay:10.37,2013-12-10 19:52:00,
2013-12-10 14:57:00,28.0,22.1,30.10,NNE,22,0.0,0.0,78,0.00,CLR,,0.00,WeatherDisplay:10.37,2013-12-10 19:57:00,
2013-12-10 15:02:00,28.2,22.5,30.10,NNE,22,0.0,0.0,79,0.00,CLR,,0.00,WeatherDisplay:10.37,2013-12-10 20:02:00,
2013-12-10 15:07:00,28.6,22.9,30.10,NNE,22,0.0,0.0,79,0.00,CLR,,0.00,WeatherDisplay:10.37,2013-12-10 20:07:00,
2013-12-10 15:12:00,31.6,26.2,30.10,NNE,22,0.0,0.0,80,0.00,CLR,,0.00,WeatherDisplay:10.37,2013-12-10 20:12:00,
2013-12-10 16:17:00,31.6,26.2,30.10,North,0,0.0,0.0,80,0.00,CLR,,0.00,WeatherDisplay:10.37,2013-12-10 21:17:00,
2013-12-10 16:22:00,31.6,26.2,30.10,North,0,0.0,0.0,80,0.00,CLR,,0.00,WeatherDisplay:10.37,2013-12-10 21:22:00,
2013-12-10 16:27:00,31.6,26.2,30.10,North,0,0.0,0.0,80,0.00,CLR,,0.00,WeatherDisplay:10.37,2013-12-10 21:27:00,
2013-12-10 16:32:00,31.6,26.2,30.10,North,0,0.0,0.0,80,0.00,CLR,,0.00,WeatherDisplay:10.37,2013-12-10 21:32:00,
2013-12-10 16:37:00,31.6,26.2,30.10,North,0,0.0,0.0,80,0.00,CLR,,0.00,WeatherDisplay:10.37,2013-12-10 21:37:00,
2013-12-10 16:39:00,31.6,26.2,30.10,North,0,0.0,0.0,80,0.00,CLR,,0.00,WeatherDisplay:10.37,2013-12-10 21:39:00,
2013-12-10 16:42:00,31.6,26.2,30.10,North,0,0.0,0.0,80,0.00,CLR,,0.00,WeatherDisplay:10.37,2013-12-10 21:42:00,
2013-12-10 16:47:00,31.6,26.2,30.10,North,0,0.0,0.0,80,0.00,CLR,,0.00,WeatherDisplay:10.37,2013-12-10 21:47:00,
2013-12-10 17:40:00,31.6,26.2,30.10,North,0,0.0,0.0,80,0.00,CLR,,0.00,WeatherDisplay:10.37,2013-12-10 22:40:00,
2013-12-10 17:45:00,31.6,26.2,30.10,North,0,0.0,0.0,80,0.00,CLR,,0.00,WeatherDisplay:10.37,2013-12-10 22:45:00,
2013-12-10 17:50:00,31.6,26.2,30.10,North,0,0.0,0.0,80,0.00,CLR,,0.00,WeatherDisplay:10.37,2013-12-10 22:50:00,
2013-12-10 17:55:00,31.6,26.2,30.10,North,0,0.0,0.0,80,0.00,CLR,,0.00,WeatherDisplay:10.37,2013-12-10 22:55:00,
2013-12-10 17:59:00,31.6,26.2,30.10,North,0,0.0,0.0,80,0.00,CLR,,0.00,WeatherDisplay:10.37,2013-12-10 22:59:00,
2013-12-10 18:00:00,31.6,26.2,30.10,North,0,0.0,0.0,80,0.00,CLR,,0.00,WeatherDisplay:10.37,2013-12-10 23:00:00,
2013-12-10 18:05:00,31.6,26.2,30.10,North,0,0.0,0.0,80,0.00,CLR,,0.00,WeatherDisplay:10.37,2013-12-10 23:05:00,
2013-12-10 18:59:00,31.6,26.2,30.10,North,0,0.0,0.0,80,0.00,CLR,,0.00,WeatherDisplay:10.37,2013-12-10 23:59:00,
2013-12-10 19:04:00,31.6,26.2,30.10,North,0,0.0,0.0,80,0.00,CLR,,0.00,WeatherDisplay:10.37,2013-12-11 00:04:00,
2013-12-10 22:20:00,31.6,26.2,30.10,North,0,0.0,0.0,80,0.00,CLR,,0.00,WeatherDisplay:10.37,2013-12-11 03:20:00,
2013-12-10 22:25:00,31.6,26.2,30.10,North,0,0.0,0.0,80,0.00,CLR,,0.00,WeatherDisplay:10.37,2013-12-11 03:25:00,
2013-12-10 22:30:00,31.6,26.2,30.10,North,0,0.0,0.0,80,0.00,CLR,,0.00,WeatherDisplay:10.37,2013-12-11 03:30:00,
2013-12-10 22:35:00,31.6,26.2,30.10,North,0,0.0,0.0,80,0.00,CLR,,0.00,WeatherDisplay:10.37,2013-12-11 03:35:00,
2013-12-10 22:40:00,31.6,26.2,30.10,North,0,0.0,0.0,80,0.00,CLR,,0.00,WeatherDisplay:10.37,2013-12-11 03:40:00,
2013-12-10 22:45:00,31.6,26.2,30.10,North,0,0.0,0.0,80,0.00,CLR,,0.00,WeatherDisplay:10.37,2013-12-11 03:45:00,
2013-12-10 22:54:00,31.6,26.2,30.10,North,0,0.0,0.0,80,0.00,CLR,,0.00,WeatherDisplay:10.37,2013-12-11 03:54:00,
2013-12-10 22:59:00,31.6,26.2,30.10,North,0,0.0,0.0,80,0.00,CLR,,0.00,WeatherDisplay:10.37,2013-12-11 03:59:00,
2013-12-10 23:04:00,31.6,26.2,30.10,North,0,0.0,0.0,80,0.00,CLR,,0.00,WeatherDisplay:10.37,2013-12-11 04:04:00,
2013-12-10 23:09:00,31.6,26.2,30.10,North,0,0.0,0.0,80,0.00,CLR,,0.00,WeatherDisplay:10.37,2013-12-11 04:09:00,
2013-12-10 23:14:00,31.6,26.2,30.10,North,0,0.0,0.0,80,0.00,CLR,,0.00,WeatherDisplay:10.37,2013-12-11 04:14:00,
2013-12-10 23:19:00,31.6,26.2,30.10,North,0,0.0,0.0,80,0.00,CLR,,0.00,WeatherDisplay:10.37,2013-12-11 04:19:00,
2013-12-10 23:24:00,31.6,26.2,30.10,North,0,0.0,0.0,80,0.00,CLR,,0.00,WeatherDisplay:10.37,2013-12-11 04:24:00,
2013-12-10 23:29:00,31.6,26.2,30.10,North,0,0.0,0.0,80,0.00,CLR,,0.00,WeatherDisplay:10.37,2013-12-11 04:29:00,
2013-12-10 23:34:00,31.6,26.2,30.10,North,0,0.0,0.0,80,0.00,CLR,,0.00,WeatherDisplay:10.37,2013-12-11 04:34:00,
2013-12-10 23:39:00,31.6,26.2,30.10,North,0,0.0,0.0,80,0.00,CLR,,0.00,WeatherDisplay:10.37,2013-12-11 04:39:00,
2013-12-10 23:44:00,31.6,26.2,30.10,North,0,0.0,0.0,80,0.00,CLR,,0.00,WeatherDisplay:10.37,2013-12-11 04:44:00,
2013-12-10 23:50:00,31.6,26.2,30.10,North,0,0.0,0.0,80,0.00,CLR,,0.00,WeatherDisplay:10.37,2013-12-11 04:50:00,
2013-12-10 23:55:00,31.6,26.2,30.10,North,0,0.0,0.0,80,0.00,CLR,,0.00,WeatherDisplay:10.37,2013-12-11 04:55:00,